createdAt,value
2022-08-27T00:02:26.576Z,21.25
2022-08-27T00:04:55.755Z,24.35
2022-08-27T00:07:24.825Z,24.25
2022-08-27T00:09:53.912Z,23.13
2022-08-27T00:12:23.170Z,28.60
2022-08-27T00:14:52.227Z,27.70
2022-08-27T00:17:21.599Z,25.98
2022-08-27T00:19:52.009Z,24.95
2022-08-27T00:22:21.475Z,24.30
2022-08-27T00:24:50.531Z,28.30
2022-08-27T00:27:19.690Z,27.15
2022-08-27T00:29:48.893Z,24.27
2022-08-27T00:32:18.534Z,23.95
2022-08-27T00:34:47.675Z,32.95
2022-08-27T00:37:18.063Z,25.30
2022-08-27T00:39:48.048Z,32.67
2022-08-27T00:42:17.665Z,22.77
2022-08-27T00:44:47.201Z,26.67
2022-08-27T00:47:27.762Z,26.27
2022-08-27T00:50:02.261Z,28.48
2022-08-27T00:52:35.585Z,28.23
2022-08-27T00:55:08.312Z,25.92
2022-08-27T00:57:39.874Z,22.52
2022-08-27T01:00:14.711Z,29.42
2022-08-27T01:02:46.545Z,24.15
2022-08-27T01:05:20.489Z,30.38
2022-08-27T01:07:54.943Z,27.17
2022-08-27T01:10:29.517Z,29.33
2022-08-27T01:12:59.112Z,23.15
2022-08-27T01:15:31.109Z,38.10
2022-08-27T01:18:00.793Z,22.20
2022-08-27T01:20:33.362Z,26.80
2022-08-27T01:23:12.060Z,29.20
2022-08-27T01:25:45.218Z,26.70
2022-08-27T01:28:16.432Z,30.98
2022-08-27T01:30:45.829Z,25.33
2022-08-27T01:33:18.787Z,26.95
2022-08-27T01:35:50.800Z,32.28
2022-08-27T01:38:31.003Z,27.42
2022-08-27T01:41:02.461Z,23.75
2022-08-27T01:43:32.311Z,27.83
2022-08-27T01:46:01.414Z,23.95
2022-08-27T01:48:30.684Z,31.48
2022-08-27T01:50:59.750Z,21.08
2022-08-27T01:53:29.279Z,37.00
2022-08-27T01:55:59.210Z,37.95
2022-08-27T01:58:31.320Z,30.15
2022-08-27T02:01:03.671Z,29.50
2022-08-27T02:03:36.509Z,29.90
2022-08-27T02:06:07.997Z,28.50
2022-08-27T02:08:37.395Z,25.33
2022-08-27T02:11:08.364Z,26.40
2022-08-27T02:13:39.261Z,25.63
2022-08-27T02:16:09.049Z,25.13
2022-08-27T02:18:38.558Z,30.80
2022-08-27T02:21:11.012Z,33.03
2022-08-27T02:23:42.014Z,29.30
2022-08-27T02:26:11.125Z,28.38
2022-08-27T02:28:41.641Z,34.65
2022-08-27T02:31:11.148Z,34.92
2022-08-27T02:33:40.318Z,32.85
2022-08-27T02:36:10.184Z,29.13
2022-08-27T02:38:39.238Z,29.42
2022-08-27T02:41:08.733Z,40.65
2022-08-27T02:43:37.928Z,27.42
2022-08-27T02:46:08.624Z,25.30
2022-08-27T02:48:38.496Z,36.75
2022-08-27T02:51:08.551Z,36.88
2022-08-27T02:53:38.742Z,26.25
2022-08-27T02:56:09.900Z,26.90
2022-08-27T02:58:39.045Z,24.25
2022-08-27T03:01:11.302Z,29.02
2022-08-27T03:03:43.659Z,26.80
2022-08-27T03:06:12.998Z,29.17
2022-08-27T03:08:52.978Z,29.42
2022-08-27T03:11:23.593Z,19.33
2022-08-27T03:13:53.731Z,34.97
2022-08-27T03:16:24.316Z,28.38
2022-08-27T03:18:52.832Z,23.10
2022-08-27T03:21:24.212Z,26.92
2022-08-27T03:23:54.283Z,25.40
2022-08-27T03:26:23.750Z,27.75
2022-08-27T03:28:52.784Z,21.50
2022-08-27T03:31:27.648Z,30.95
2022-08-27T03:33:58.959Z,25.33
2022-08-27T03:36:29.728Z,24.55
2022-08-27T03:38:59.518Z,26.08
2022-08-27T03:41:54.247Z,20.25
2022-08-27T03:44:21.343Z,22.45
2022-08-27T03:46:52.642Z,24.95
2022-08-27T03:49:23.126Z,22.98
2022-08-27T03:51:54.086Z,21.40
2022-08-27T03:54:23.359Z,24.27
2022-08-27T03:56:53.042Z,27.27
2022-08-27T03:59:22.158Z,20.02
2022-08-27T04:01:52.645Z,25.00
2022-08-27T04:04:23.699Z,25.33
2022-08-27T04:06:53.615Z,25.52
2022-08-27T04:09:25.132Z,21.30
2022-08-27T04:11:54.526Z,23.15
2022-08-27T04:14:26.848Z,21.98
2022-08-27T04:16:58.530Z,21.25
2022-08-27T04:19:30.347Z,26.13
2022-08-27T04:22:05.840Z,14.57
2022-08-27T04:24:36.639Z,21.27
2022-08-27T04:27:07.121Z,21.08
2022-08-27T04:29:36.704Z,18.90
2022-08-27T04:32:07.725Z,23.33
2022-08-27T04:34:36.955Z,23.50
2022-08-27T04:37:06.464Z,21.27
2022-08-27T04:39:35.739Z,27.20
2022-08-27T04:42:05.104Z,19.08
2022-08-27T04:44:35.200Z,21.92
2022-08-27T04:47:07.143Z,20.50
2022-08-27T04:49:36.884Z,21.98
2022-08-27T04:52:06.187Z,27.02
2022-08-27T04:54:36.308Z,26.25
2022-08-27T04:57:07.355Z,17.58
2022-08-27T04:59:38.928Z,19.42
2022-08-27T05:02:10.892Z,21.23
2022-08-27T05:04:42.004Z,23.08
2022-08-27T05:07:11.700Z,24.98
2022-08-27T05:09:41.564Z,20.52
2022-08-27T05:12:11.047Z,23.92
2022-08-27T05:14:40.479Z,24.00
2022-08-27T05:17:10.943Z,19.65
2022-08-27T05:19:40.044Z,24.58
2022-08-27T05:22:09.059Z,19.80
2022-08-27T05:24:38.831Z,22.85
2022-08-27T05:27:07.972Z,22.05
2022-08-27T05:29:40.703Z,20.83
2022-08-27T05:32:11.162Z,19.80
2022-08-27T05:34:40.195Z,23.15
2022-08-27T05:37:09.403Z,25.35
2022-08-27T05:39:38.502Z,21.33
2022-08-27T05:42:07.814Z,28.52
2022-08-27T05:44:41.090Z,20.08
2022-08-27T05:47:12.371Z,20.83
2022-08-27T05:49:41.544Z,27.27
2022-08-27T05:52:11.878Z,18.58
2022-08-27T05:54:41.179Z,33.67
2022-08-27T05:57:10.612Z,24.05
2022-08-27T05:59:57.525Z,23.88
2022-08-27T06:02:28.430Z,19.70
2022-08-27T06:04:57.907Z,24.88
2022-08-27T06:07:26.999Z,20.83
2022-08-27T06:09:57.978Z,26.33
2022-08-27T06:12:29.579Z,16.30
2022-08-27T06:14:58.625Z,24.08
2022-08-27T06:17:30.130Z,15.68
2022-08-27T06:19:59.649Z,22.23
2022-08-27T06:22:29.920Z,20.38
2022-08-27T06:24:59.027Z,27.33
2022-08-27T06:27:28.113Z,25.50
2022-08-27T06:29:57.204Z,22.95
2022-08-27T06:32:26.601Z,27.15
2022-08-27T06:34:57.095Z,22.38
2022-08-27T06:37:27.313Z,17.05
2022-08-27T06:39:56.386Z,17.67
2022-08-27T06:42:25.723Z,21.33
2022-08-27T06:44:55.481Z,21.35
2022-08-27T06:47:24.721Z,24.10
2022-08-27T06:49:53.883Z,22.58
2022-08-27T06:52:24.399Z,27.75
2022-08-27T06:54:54.054Z,28.83
2022-08-27T06:57:24.450Z,27.00
2022-08-27T06:59:53.576Z,16.73
2022-08-27T07:02:22.938Z,22.25
2022-08-27T07:04:54.744Z,15.30
2022-08-27T07:07:35.540Z,17.38
2022-08-27T07:10:08.531Z,19.38
2022-08-27T07:12:37.775Z,20.27
2022-08-27T07:15:07.753Z,23.90
2022-08-27T07:17:36.834Z,20.85
2022-08-27T07:20:08.064Z,27.65
2022-08-27T07:22:40.503Z,16.13
2022-08-27T07:25:14.883Z,22.83
2022-08-27T07:27:45.737Z,15.45
2022-08-27T07:30:16.405Z,17.77
2022-08-27T07:32:46.579Z,20.58
2022-08-27T07:35:16.065Z,17.85
2022-08-27T07:37:46.623Z,16.48
2022-08-27T07:40:17.659Z,18.17
2022-08-27T07:43:04.335Z,13.55
2022-08-27T07:45:33.536Z,11.80
2022-08-27T07:48:02.796Z,17.85
2022-08-27T07:50:34.584Z,14.15
2022-08-27T07:53:05.017Z,22.20
2022-08-27T07:55:36.313Z,11.63
2022-08-27T07:58:06.024Z,11.57
2022-08-27T08:00:43.525Z,10.70
2022-08-27T08:03:13.258Z,14.23
2022-08-27T08:05:44.065Z,15.63
2022-08-27T08:08:14.465Z,11.57
2022-08-27T08:10:43.619Z,12.60
2022-08-27T08:13:12.751Z,12.40
2022-08-27T08:15:44.589Z,10.07
2022-08-27T08:18:14.409Z,11.48
2022-08-27T08:20:57.540Z,15.75
2022-08-27T08:23:29.175Z,14.63
2022-08-27T08:25:58.520Z,14.40
2022-08-27T08:28:29.126Z,12.90
2022-08-27T08:30:59.307Z,13.43
2022-08-27T08:33:28.686Z,16.67
2022-08-27T08:36:06.850Z,16.92
2022-08-27T08:38:38.196Z,11.98
2022-08-27T08:41:20.612Z,16.27
2022-08-27T08:43:51.695Z,6.72
2022-08-27T08:46:28.483Z,8.50
2022-08-27T08:49:03.920Z,12.02
2022-08-27T08:51:38.538Z,11.07
2022-08-27T08:54:15.301Z,16.10
2022-08-27T08:56:55.234Z,8.65
2022-08-27T08:59:31.485Z,10.05
2022-08-27T09:02:02.593Z,10.32
2022-08-27T09:04:33.118Z,19.50
2022-08-27T09:07:09.249Z,10.45
2022-08-27T09:09:49.254Z,15.48
2022-08-27T09:12:25.113Z,17.63
2022-08-27T09:14:59.687Z,13.50
2022-08-27T09:17:31.331Z,10.18
2022-08-27T09:20:02.342Z,13.60
2022-08-27T09:22:48.168Z,12.25
2022-08-27T09:25:26.509Z,14.75
2022-08-27T09:27:59.901Z,10.55
2022-08-27T09:30:33.411Z,8.43
2022-08-27T09:33:05.870Z,10.10
2022-08-27T09:35:42.955Z,18.70
2022-08-27T09:38:21.720Z,7.88
2022-08-27T09:40:54.439Z,11.10
2022-08-27T09:43:28.505Z,10.93
2022-08-27T09:46:01.634Z,9.20
2022-08-27T09:48:33.958Z,12.60
2022-08-27T09:51:10.506Z,13.20
2022-08-27T09:53:47.000Z,7.80
2022-08-27T09:56:31.010Z,11.35
2022-08-27T09:59:07.331Z,15.23
2022-08-27T10:01:39.710Z,15.05
2022-08-27T10:04:12.837Z,13.77
2022-08-27T10:06:49.972Z,14.05
2022-08-27T10:09:26.305Z,13.27
2022-08-27T10:12:06.718Z,12.48
2022-08-27T10:14:41.462Z,9.68
2022-08-27T10:17:19.030Z,14.40
2022-08-27T10:20:00.864Z,11.98
2022-08-27T10:22:48.540Z,12.13
2022-08-27T10:25:27.248Z,10.57
2022-08-27T10:28:07.298Z,7.25
2022-08-27T10:30:53.341Z,10.27
2022-08-27T10:33:31.362Z,13.13
2022-08-27T10:36:10.617Z,8.88
2022-08-27T10:38:44.847Z,13.95
2022-08-27T10:41:18.659Z,8.30
2022-08-27T10:44:12.440Z,17.80
2022-08-27T10:47:04.855Z,11.50
2022-08-27T10:49:46.106Z,12.95
2022-08-27T10:52:23.183Z,13.57
2022-08-27T10:55:00.326Z,11.93
2022-08-27T10:57:56.404Z,10.50
2022-08-27T11:00:36.852Z,7.45
2022-08-27T11:03:13.789Z,10.32
2022-08-27T11:05:46.760Z,10.50
2022-08-27T11:08:22.851Z,12.55
2022-08-27T11:10:56.775Z,8.45
2022-08-27T11:13:33.643Z,7.43
2022-08-27T11:16:12.614Z,10.38
2022-08-27T11:18:48.567Z,11.15
2022-08-27T11:21:25.456Z,10.27
2022-08-27T11:24:00.603Z,10.27
2022-08-27T11:26:31.872Z,13.73
2022-08-27T11:29:07.959Z,17.98
2022-08-27T11:31:49.126Z,9.32
2022-08-27T11:34:26.665Z,10.15
2022-08-27T11:37:17.737Z,8.82
2022-08-27T11:40:07.681Z,12.55
2022-08-27T11:42:41.218Z,12.82
2022-08-27T11:45:18.089Z,10.05
2022-08-27T11:47:56.312Z,9.65
2022-08-27T11:50:27.761Z,9.77
2022-08-27T11:53:01.665Z,6.93
2022-08-27T11:55:36.641Z,7.82
2022-08-27T11:58:12.046Z,9.32
2022-08-27T12:00:44.445Z,9.93
2022-08-27T12:03:31.474Z,10.68
2022-08-27T12:06:18.792Z,7.18
2022-08-27T12:08:48.346Z,3.97
2022-08-27T12:11:31.924Z,13.07
2022-08-27T12:14:14.344Z,6.82
2022-08-27T12:16:50.541Z,6.75
2022-08-27T12:19:30.953Z,3.88
2022-08-27T12:22:16.407Z,7.72
2022-08-27T12:24:52.992Z,8.57
2022-08-27T12:27:35.459Z,9.93
2022-08-27T12:30:21.118Z,8.93
2022-08-27T12:32:52.566Z,9.75
2022-08-27T12:35:29.134Z,5.63
2022-08-27T12:38:12.838Z,7.97
2022-08-27T12:40:47.377Z,7.85
2022-08-27T12:43:20.932Z,11.48
2022-08-27T12:45:52.564Z,3.33
2022-08-27T12:48:25.457Z,9.00
2022-08-27T12:50:59.118Z,9.07
2022-08-27T12:53:45.254Z,5.65
2022-08-27T12:56:43.915Z,6.72
2022-08-27T12:59:35.782Z,5.30
2022-08-27T13:02:18.591Z,11.25
2022-08-27T13:04:50.294Z,8.90
2022-08-27T13:07:37.814Z,8.23
2022-08-27T13:10:14.938Z,6.40
2022-08-27T13:12:47.175Z,5.82
2022-08-27T13:15:21.846Z,3.58
2022-08-27T13:17:52.876Z,6.40
2022-08-27T13:20:26.455Z,3.45
2022-08-27T13:22:58.455Z,10.20
2022-08-27T13:25:30.955Z,6.72
2022-08-27T13:28:07.841Z,4.75
2022-08-27T13:30:39.174Z,8.40
2022-08-27T13:33:11.881Z,13.93
2022-08-27T13:35:43.706Z,4.00
2022-08-27T13:38:17.368Z,8.68
2022-08-27T13:40:59.408Z,5.47
2022-08-27T13:43:34.088Z,7.38
2022-08-27T13:46:08.335Z,9.98
2022-08-27T13:48:42.303Z,6.47
2022-08-27T13:51:14.186Z,3.75
2022-08-27T13:54:05.797Z,3.95
2022-08-27T13:56:39.163Z,6.50
2022-08-27T13:59:14.535Z,7.75
2022-08-27T14:01:54.758Z,5.97
2022-08-27T14:04:26.617Z,6.50
2022-08-27T14:06:56.139Z,4.47
2022-08-27T14:09:29.939Z,5.65
2022-08-27T14:12:04.716Z,5.88
2022-08-27T14:14:41.377Z,6.47
2022-08-27T14:17:29.751Z,7.00
2022-08-27T14:20:01.876Z,5.70
2022-08-27T14:22:31.075Z,5.90
2022-08-27T14:25:01.983Z,4.60
2022-08-27T14:27:31.824Z,3.33
2022-08-27T14:30:00.901Z,9.93
2022-08-27T14:32:30.526Z,9.02
2022-08-27T14:34:59.666Z,3.15
2022-08-27T14:37:29.713Z,4.10
2022-08-27T14:40:00.604Z,6.55
2022-08-27T14:42:29.772Z,7.80
2022-08-27T14:44:58.851Z,5.93
2022-08-27T14:47:33.568Z,6.25
2022-08-27T14:50:02.951Z,5.38
2022-08-27T14:52:32.040Z,5.15
2022-08-27T14:55:02.491Z,3.70
2022-08-27T14:57:31.699Z,8.52
2022-08-27T15:00:00.770Z,10.00
2022-08-27T15:02:30.022Z,8.27
2022-08-27T15:05:00.154Z,5.32
2022-08-27T15:07:29.478Z,6.72
2022-08-27T15:10:00.571Z,6.22
2022-08-27T15:12:31.330Z,6.85
2022-08-27T15:15:00.559Z,5.97
2022-08-27T15:17:34.577Z,7.25
2022-08-27T15:20:06.529Z,7.45
2022-08-27T15:22:37.756Z,4.95
2022-08-27T15:25:13.483Z,6.90
2022-08-27T15:27:44.702Z,7.65
2022-08-27T15:30:16.713Z,5.00
2022-08-27T15:32:48.956Z,12.18
2022-08-27T15:35:19.855Z,8.98
2022-08-27T15:37:49.104Z,8.90
2022-08-27T15:40:19.775Z,4.78
2022-08-27T15:42:54.410Z,5.70
2022-08-27T15:45:25.696Z,6.85
2022-08-27T15:47:57.221Z,5.65
2022-08-27T15:50:28.252Z,6.30
2022-08-27T15:53:02.455Z,6.53
2022-08-27T15:55:34.279Z,8.45
2022-08-27T15:58:05.431Z,4.45
2022-08-27T16:00:36.440Z,7.35
2022-08-27T16:03:09.367Z,5.47
2022-08-27T16:05:40.974Z,8.65
2022-08-27T16:08:11.903Z,7.20
2022-08-27T16:10:41.399Z,6.32
2022-08-27T16:13:11.927Z,9.23
2022-08-27T16:15:42.198Z,10.00
2022-08-27T16:18:12.257Z,10.13
2022-08-27T16:20:42.375Z,14.52
2022-08-27T16:23:13.770Z,6.53
2022-08-27T16:25:43.021Z,6.65
2022-08-27T16:28:13.440Z,6.25
2022-08-27T16:30:43.466Z,6.32
2022-08-27T16:33:14.172Z,8.93
2022-08-27T16:35:44.120Z,15.10
2022-08-27T16:38:13.720Z,4.40
2022-08-27T16:40:45.565Z,7.88
2022-08-27T16:43:20.977Z,4.88
2022-08-27T16:45:50.533Z,8.25
2022-08-27T16:48:37.621Z,6.93
2022-08-27T16:51:10.134Z,12.43
2022-08-27T16:53:42.129Z,14.00
2022-08-27T16:56:11.205Z,9.02
2022-08-27T16:58:45.922Z,5.72
2022-08-27T17:01:17.900Z,10.43
2022-08-27T17:04:08.085Z,8.75
2022-08-27T17:06:39.633Z,6.10
2022-08-27T17:09:10.320Z,15.63
2022-08-27T17:11:42.807Z,10.13
2022-08-27T17:14:13.453Z,11.55
2022-08-27T17:16:43.240Z,7.15
2022-08-27T17:19:16.869Z,7.03
2022-08-27T17:21:46.802Z,9.15
2022-08-27T17:24:16.234Z,6.53
2022-08-27T17:26:45.789Z,7.45
2022-08-27T17:29:16.096Z,11.52
2022-08-27T17:31:45.141Z,7.57
2022-08-27T17:34:18.311Z,9.00
2022-08-27T17:36:47.381Z,8.63
2022-08-27T17:39:16.993Z,8.35
2022-08-27T17:41:48.183Z,11.43
2022-08-27T17:44:24.357Z,7.07
2022-08-27T17:46:58.266Z,9.50
2022-08-27T17:49:28.025Z,14.73
2022-08-27T17:51:59.624Z,7.90
2022-08-27T17:54:35.183Z,5.75
2022-08-27T17:57:11.091Z,11.68
2022-08-27T17:59:41.417Z,7.13
2022-08-27T18:02:13.987Z,12.43
2022-08-27T18:04:43.362Z,8.27
2022-08-27T18:07:12.596Z,18.70
2022-08-27T18:09:41.969Z,13.85
2022-08-27T18:12:12.967Z,9.85
2022-08-27T18:14:43.836Z,11.57
2022-08-27T18:17:13.852Z,11.20
2022-08-27T18:19:45.818Z,7.15
2022-08-27T18:22:16.074Z,6.75
2022-08-27T18:24:45.150Z,9.75
2022-08-27T18:27:18.099Z,10.80
2022-08-27T18:29:49.922Z,9.43
2022-08-27T18:32:22.753Z,8.45
2022-08-27T18:34:52.205Z,7.25
2022-08-27T18:37:23.974Z,9.63
2022-08-27T18:39:53.129Z,11.75
2022-08-27T18:42:22.422Z,15.48
2022-08-27T18:44:52.880Z,12.63
2022-08-27T18:47:21.950Z,9.48
2022-08-27T18:49:51.252Z,14.07
2022-08-27T18:52:23.279Z,13.18
2022-08-27T18:54:52.427Z,11.00
2022-08-27T18:57:21.486Z,10.02
2022-08-27T18:59:52.055Z,15.00
2022-08-27T19:02:22.556Z,8.70
2022-08-27T19:04:51.988Z,11.95
2022-08-27T19:07:21.277Z,6.45
2022-08-27T19:09:50.471Z,9.77
2022-08-27T19:12:19.849Z,8.73
2022-08-27T19:14:49.313Z,9.00
2022-08-27T19:17:26.215Z,12.25
2022-08-27T19:19:55.849Z,17.63
2022-08-27T19:22:25.585Z,11.68
2022-08-27T19:24:55.481Z,8.82
2022-08-27T19:27:26.310Z,7.97
2022-08-27T19:29:56.038Z,17.13
2022-08-27T19:32:26.676Z,8.50
2022-08-27T19:34:55.775Z,15.25
2022-08-27T19:37:27.465Z,9.43
2022-08-27T19:39:57.477Z,10.43
2022-08-27T19:42:26.618Z,22.58
2022-08-27T19:44:56.743Z,13.77
2022-08-27T19:47:27.803Z,11.70
2022-08-27T19:49:57.327Z,13.77
2022-08-27T19:52:26.620Z,6.47
2022-08-27T19:55:14.113Z,15.60
2022-08-27T19:57:44.454Z,12.68
2022-08-27T20:00:16.248Z,10.43
2022-08-27T20:02:47.113Z,10.50
2022-08-27T20:05:21.381Z,11.27
2022-08-27T20:07:52.900Z,15.27
2022-08-27T20:10:28.601Z,15.63
2022-08-27T20:13:06.394Z,13.02
2022-08-27T20:15:36.454Z,16.45
2022-08-27T20:18:09.087Z,11.35
2022-08-27T20:20:38.400Z,7.97
2022-08-27T20:23:09.031Z,11.37
2022-08-27T20:25:38.367Z,16.88
2022-08-27T20:28:35.424Z,9.38
2022-08-27T20:30:57.989Z,9.60
2022-08-27T20:33:28.456Z,13.40
2022-08-27T20:35:59.694Z,7.30
2022-08-27T20:38:28.817Z,17.50
2022-08-27T20:40:57.894Z,12.77
2022-08-27T20:43:26.952Z,15.77
2022-08-27T20:45:56.107Z,12.57
2022-08-27T20:48:25.149Z,16.10
2022-08-27T20:50:55.820Z,24.38
2022-08-27T20:53:25.909Z,18.38
2022-08-27T20:55:56.593Z,14.97
2022-08-27T20:58:44.008Z,25.13
2022-08-27T21:01:13.504Z,11.13
2022-08-27T21:03:42.732Z,17.93
2022-08-27T21:06:13.444Z,16.83
2022-08-27T21:08:42.710Z,22.53
2022-08-27T21:11:14.753Z,16.47
2022-08-27T21:13:55.725Z,13.33
2022-08-27T21:16:26.724Z,9.27
2022-08-27T21:18:56.177Z,8.25
2022-08-27T21:21:26.821Z,9.13
2022-08-27T21:23:55.867Z,17.83
2022-08-27T21:26:24.974Z,19.73
2022-08-27T21:28:55.739Z,18.40
2022-08-27T21:31:25.816Z,10.17
2022-08-27T21:33:54.959Z,11.93
2022-08-27T21:36:25.415Z,14.67
2022-08-27T21:38:54.732Z,21.27
2022-08-27T21:41:24.718Z,19.07
2022-08-27T21:43:53.933Z,14.87
2022-08-27T21:46:23.215Z,18.80
2022-08-27T21:48:58.952Z,13.10
2022-08-27T21:51:31.774Z,16.50
2022-08-27T21:54:01.881Z,18.67
2022-08-27T21:56:32.272Z,15.73
2022-08-27T21:59:01.527Z,13.83
2022-08-27T22:01:31.171Z,16.63
2022-08-27T22:04:00.467Z,18.17
2022-08-27T22:06:30.966Z,19.63
2022-08-27T22:09:00.121Z,16.77
2022-08-27T22:11:30.690Z,15.50
2022-08-27T22:13:59.944Z,14.93
2022-08-27T22:16:29.611Z,23.67
2022-08-27T22:18:58.870Z,14.03
2022-08-27T22:21:28.033Z,8.57
2022-08-27T22:23:58.620Z,19.20
2022-08-27T22:26:27.827Z,10.93
2022-08-27T22:28:56.949Z,12.00
2022-08-27T22:31:26.135Z,15.00
2022-08-27T22:33:55.525Z,13.07
2022-08-27T22:36:24.551Z,12.17
2022-08-27T22:38:53.691Z,12.33
2022-08-27T22:41:33.922Z,14.70
2022-08-27T22:44:03.975Z,12.07
2022-08-27T22:46:33.210Z,11.83
2022-08-27T22:49:02.486Z,12.97
2022-08-27T22:51:31.556Z,14.60
2022-08-27T22:54:00.668Z,18.93
2022-08-27T22:56:29.818Z,10.40
2022-08-27T22:59:00.382Z,15.90
2022-08-27T23:01:29.908Z,16.83
2022-08-27T23:03:58.978Z,21.70
2022-08-27T23:06:28.248Z,15.47
2022-08-27T23:08:57.328Z,15.53
2022-08-27T23:11:26.687Z,12.70
2022-08-27T23:13:55.759Z,7.87
2022-08-27T23:16:26.499Z,13.77
2022-08-27T23:18:55.885Z,21.30
2022-08-27T23:21:24.860Z,20.70
2022-08-27T23:23:53.892Z,13.20
2022-08-27T23:26:40.672Z,16.93
2022-08-27T23:29:11.194Z,12.93
2022-08-27T23:31:41.763Z,10.97
2022-08-27T23:34:10.861Z,12.23
2022-08-27T23:36:39.936Z,11.67
2022-08-27T23:39:10.653Z,12.03
2022-08-27T23:41:39.900Z,16.07
2022-08-27T23:44:09.737Z,12.13
2022-08-27T23:46:40.835Z,19.90
2022-08-27T23:49:10.230Z,16.50
2022-08-27T23:51:40.075Z,16.07
2022-08-27T23:54:09.242Z,13.17
2022-08-27T23:56:38.240Z,8.87
2022-08-27T23:59:07.317Z,18.00
